Time;durP1;ratioP1;P1;durP2;ratioP2;P2;SDS_P1;SDS_P2;PMS_P1;PMS_P2;Temp;Humidity;BMP_temperature;BMP_pressure;BME280_temperature;BME280_humidity;BME280_pressure;Samples;Min_cycle;Max_cycle;Signal;HPM_P1;HPM_P2
2021/08/17 00:01:53;;;;;;;31.68;6.28;;;;;;;16.08;100.00;100594.34;1786621;79;21010;-39
2021/08/17 00:04:19;;;;;;;20.08;5.92;;;;;;;16.07;100.00;100592.65;1772084;79;21034;-40
2021/08/17 00:06:45;;;;;;;10.58;5.75;;;;;;;16.04;100.00;100600.61;1788864;79;20929;-41
2021/08/17 00:09:14;;;;;;;9.95;5.17;;;;;;;16.00;100.00;100597.69;1792707;79;21246;-40
2021/08/17 00:11:42;;;;;;;11.12;5.50;;;;;;;15.95;100.00;100607.47;1764219;79;20995;-41
2021/08/17 00:14:10;;;;;;;6.78;5.75;;;;;;;15.92;99.91;100610.20;1785065;79;20936;-40
2021/08/17 00:16:36;;;;;;;7.62;5.83;;;;;;;15.88;99.90;100610.77;1767294;79;21643;-39
2021/08/17 00:19:04;;;;;;;10.10;5.72;;;;;;;15.87;99.80;100612.11;1785582;79;21643;-39
2021/08/17 00:21:31;;;;;;;8.05;5.78;;;;;;;15.83;99.62;100605.31;1775962;79;21148;-41
2021/08/17 00:23:57;;;;;;;13.22;5.87;;;;;;;15.80;99.56;100608.44;1790873;79;21590;-40
2021/08/17 00:26:25;;;;;;;14.47;5.58;;;;;;;15.77;99.56;100602.00;1785219;79;20961;-40
2021/08/17 00:28:51;;;;;;;9.08;5.90;;;;;;;15.79;99.50;100605.88;1780263;79;20965;-40
2021/08/17 00:31:18;;;;;;;10.40;6.25;;;;;;;15.82;99.27;100612.27;1767103;79;20971;-40
2021/08/17 00:33:44;;;;;;;11.05;5.62;;;;;;;15.87;98.87;100610.80;1793247;79;21103;-41
2021/08/17 00:36:11;;;;;;;13.25;6.00;;;;;;;15.94;98.45;100610.98;1791831;79;21076;-39
2021/08/17 00:38:39;;;;;;;8.50;5.90;;;;;;;15.98;98.19;100603.90;1770329;79;21046;-40
2021/08/17 00:41:10;;;;;;;13.98;6.55;;;;;;;16.02;97.85;100615.45;1738843;79;20986;-41
2021/08/17 00:43:39;;;;;;;13.30;6.22;;;;;;;16.00;97.53;100613.36;1775197;79;20956;-41
2021/08/17 00:46:06;;;;;;;8.18;6.08;;;;;;;16.01;97.31;100613.75;1794332;79;21117;-41
2021/08/17 00:48:36;;;;;;;11.93;6.05;;;;;;;16.01;97.23;100615.05;1787391;78;21590;-39
2021/08/17 00:51:03;;;;;;;12.23;5.92;;;;;;;16.03;97.11;100607.18;1786394;79;20991;-39
2021/08/17 00:53:31;;;;;;;17.52;6.15;;;;;;;16.04;96.87;100608.44;1782996;79;21023;-39
2021/08/17 00:55:59;;;;;;;14.05;5.85;;;;;;;16.01;96.74;100611.14;1781315;79;21046;-40
2021/08/17 00:58:26;;;;;;;8.05;5.92;;;;;;;15.99;96.59;100609.05;1787943;79;21770;-39
2021/08/17 01:00:53;;;;;;;12.23;5.47;;;;;;;15.98;96.60;100611.73;1787796;79;20960;-39
2021/08/17 01:03:19;;;;;;;15.23;6.30;;;;;;;15.98;96.69;100606.52;1767655;79;21027;-39
2021/08/17 01:05:46;;;;;;;12.80;6.10;;;;;;;15.98;96.72;100612.56;1788973;79;20941;-40
2021/08/17 01:08:13;;;;;;;10.05;6.30;;;;;;;15.96;96.70;100607.86;1770970;79;21022;-41
2021/08/17 01:10:41;;;;;;;14.43;6.30;;;;;;;15.93;96.71;100602.77;1792454;79;21133;-41
2021/08/17 01:13:08;;;;;;;10.55;6.58;;;;;;;15.93;96.87;100607.55;1786565;79;20991;-41
2021/08/17 01:15:36;;;;;;;16.10;6.67;;;;;;;15.93;97.01;100602.77;1791236;79;21113;-39
2021/08/17 01:18:06;;;;;;;11.90;6.37;;;;;;;15.93;97.10;100609.29;1785543;79;20957;-40
2021/08/17 01:20:33;;;;;;;10.45;5.85;;;;;;;15.89;97.15;100602.02;1772439;79;21087;-40
2021/08/17 01:22:59;;;;;;;12.63;5.62;;;;;;;15.87;97.27;100597.76;1759640;79;21788;-41
2021/08/17 01:25:26;;;;;;;12.85;6.15;;;;;;;15.85;97.33;100602.19;1758356;79;21514;-40
2021/08/17 01:27:52;;;;;;;10.05;5.50;;;;;;;15.81;97.44;100594.91;1767359;79;20902;-39
2021/08/17 01:30:19;;;;;;;9.33;5.58;;;;;;;15.79;97.55;100598.05;1776920;79;21237;-41
2021/08/17 01:32:47;;;;;;;10.72;6.10;;;;;;;15.74;97.60;100598.67;1775535;79;21019;-41
2021/08/17 01:35:13;;;;;;;9.25;5.90;;;;;;;15.71;97.82;100597.48;1774170;79;21161;-40
2021/08/17 01:37:40;;;;;;;8.75;5.75;;;;;;;15.68;97.90;100601.53;1791760;79;21003;-41
2021/08/17 01:40:09;;;;;;;10.78;5.72;;;;;;;15.63;98.04;100593.39;1779902;79;20994;-41
2021/08/17 01:42:43;;;;;;;8.80;5.97;;;;;;;15.62;98.42;100596.07;1750821;79;21030;-41
2021/08/17 01:45:13;;;;;;;14.38;6.53;;;;;;;15.61;98.60;100593.06;1787045;79;20925;-41
2021/08/17 01:47:39;;;;;;;15.63;6.42;;;;;;;15.58;98.78;100587.97;1790479;78;21133;-41
2021/08/17 01:50:08;;;;;;;11.05;5.80;;;;;;;15.56;98.77;100584.57;1783757;79;21022;-41
2021/08/17 01:55:29;;;;;;;14.28;6.05;;;;;;;15.55;99.19;100590.70;1795849;79;23309;-40
2021/08/17 01:58:00;;;;;;;10.30;6.20;;;;;;;15.47;99.24;100597.49;1755805;81;21478;-41
2021/08/17 02:00:28;;;;;;;20.65;6.47;;;;;;;15.45;99.57;100591.48;1762262;80;21043;-40
2021/08/17 02:02:56;;;;;;;13.88;6.62;;;;;;;15.47;100.00;100591.80;1734265;81;21018;-41
2021/08/17 02:05:24;;;;;;;12.37;6.72;;;;;;;15.49;100.00;100588.69;1756176;80;20956;-41
2021/08/17 02:07:54;;;;;;;9.58;6.58;;;;;;;15.52;100.00;100585.13;1747107;81;21030;-41
2021/08/17 02:10:21;;;;;;;16.48;6.75;;;;;;;15.55;100.00;100589.39;1755179;80;21014;-40
2021/08/17 02:12:49;;;;;;;11.40;7.15;;;;;;;15.56;100.00;100590.63;1751497;80;20936;-41
2021/08/17 02:15:15;;;;;;;11.68;5.65;;;;;;;15.57;100.00;100592.79;1757246;80;20983;-41
2021/08/17 02:17:43;;;;;;;15.00;6.20;;;;;;;15.60;100.00;100594.81;1749758;81;21496;-39
2021/08/17 02:20:12;;;;;;;12.25;7.80;;;;;;;15.68;100.00;100596.30;1755628;80;21583;-40
2021/08/17 02:22:40;;;;;;;13.62;6.10;;;;;;;15.72;100.00;100591.36;1758719;80;20975;-41
2021/08/17 02:25:09;;;;;;;15.30;7.12;;;;;;;15.77;100.00;100588.12;1761960;80;21139;-41
2021/08/17 02:27:36;;;;;;;18.15;7.03;;;;;;;15.82;100.00;100595.78;1750134;80;21065;-40
2021/08/17 02:30:04;;;;;;;11.95;7.25;;;;;;;15.87;99.72;100595.98;1758001;80;20912;-40
2021/08/17 02:32:31;;;;;;;13.00;7.47;;;;;;;15.94;99.15;100597.94;1754340;80;20970;-40
2021/08/17 02:34:58;;;;;;;12.65;8.10;;;;;;;16.00;98.43;100592.47;1756919;80;20995;-39
2021/08/17 02:37:25;;;;;;;17.20;8.15;;;;;;;16.07;97.54;100590.48;1740949;81;21111;-39
2021/08/17 02:39:52;;;;;;;10.23;7.22;;;;;;;16.13;96.73;100591.53;1736872;82;21003;-39
2021/08/17 02:42:18;;;;;;;14.90;7.62;;;;;;;16.16;95.72;100587.49;1727593;82;20934;-39
2021/08/17 02:44:46;;;;;;;13.38;7.17;;;;;;;16.22;95.16;100585.09;1733613;80;20987;-39
2021/08/17 02:47:13;;;;;;;17.23;7.28;;;;;;;16.22;94.72;100587.71;1727560;82;21026;-40
2021/08/17 02:49:40;;;;;;;12.45;7.15;;;;;;;16.19;94.68;100587.84;1719826;82;21150;-40
2021/08/17 02:52:06;;;;;;;19.25;7.50;;;;;;;16.16;94.46;100595.80;1728030;82;21087;-41
2021/08/17 02:54:36;;;;;;;20.68;7.65;;;;;;;16.11;94.21;100601.19;1735906;82;21573;-41
2021/08/17 02:57:03;;;;;;;13.10;7.90;;;;;;;16.07;93.77;100599.17;1745863;82;20967;-41
2021/08/17 02:59:31;;;;;;;12.35;7.15;;;;;;;16.04;93.71;100600.61;1738557;82;21034;-41
2021/08/17 03:02:00;;;;;;;9.63;6.65;;;;;;;16.00;93.75;100609.44;1734163;82;21096;-40
2021/08/17 03:04:27;;;;;;;14.65;6.75;;;;;;;15.95;93.74;100607.47;1732549;82;21533;-41
2021/08/17 03:06:55;;;;;;;9.40;6.60;;;;;;;15.90;93.88;100606.80;1711485;82;21111;-41
2021/08/17 03:09:22;;;;;;;18.32;7.60;;;;;;;15.86;94.10;100607.80;1707760;82;21035;-40
2021/08/17 03:11:50;;;;;;;14.03;7.87;;;;;;;15.83;94.24;100604.00;1732506;82;20912;-40
2021/08/17 03:14:18;;;;;;;12.35;8.63;;;;;;;15.82;94.20;100604.45;1722340;82;21038;-40
2021/08/17 03:16:45;;;;;;;13.83;6.95;;;;;;;15.88;94.06;100605.98;1731521;82;21753;-40
2021/08/17 03:19:13;;;;;;;10.95;6.85;;;;;;;15.93;93.79;100610.16;1731795;82;21552;-41
2021/08/17 03:21:41;;;;;;;15.83;7.15;;;;;;;16.01;93.85;100619.44;1743144;82;21552;-42
2021/08/17 03:24:08;;;;;;;18.98;8.83;;;;;;;16.03;93.74;100608.02;1734132;82;21481;-40
2021/08/17 03:26:34;;;;;;;16.20;7.80;;;;;;;16.08;93.61;100616.98;1726992;82;22052;-43
2021/08/17 03:29:00;;;;;;;16.02;8.03;;;;;;;16.15;93.50;100611.91;1721005;82;20928;-42
2021/08/17 03:31:27;;;;;;;19.42;8.53;;;;;;;16.25;93.17;100611.56;1719676;82;20920;-42
2021/08/17 03:33:54;;;;;;;20.23;9.23;;;;;;;16.37;92.82;100621.06;1732229;82;21552;-41
2021/08/17 03:36:20;;;;;;;14.13;8.65;;;;;;;16.49;92.53;100616.24;1742094;82;20929;-40
2021/08/17 03:38:48;;;;;;;13.00;8.38;;;;;;;16.60;92.26;100619.72;1741764;82;22022;-41
2021/08/17 03:41:14;;;;;;;22.13;8.48;;;;;;;16.71;91.99;100619.28;1671114;82;21545;-42
2021/08/17 03:43:41;;;;;;;12.80;7.75;;;;;;;16.83;91.58;100618.78;1730423;80;22279;-42
2021/08/17 03:46:08;;;;;;;14.07;9.03;;;;;;;16.97;91.23;100622.12;1740729;82;21522;-42
2021/08/17 03:48:35;;;;;;;16.20;8.90;;;;;;;17.10;90.95;100618.55;1724469;81;21018;-42
2021/08/17 03:51:02;;;;;;;11.83;8.45;;;;;;;17.26;90.88;100618.73;1738130;80;21148;-43
2021/08/17 03:53:30;;;;;;;16.17;8.43;;;;;;;17.41;90.35;100613.27;1715460;82;20947;-40
2021/08/17 03:55:56;;;;;;;16.75;8.18;;;;;;;17.59;89.99;100618.61;1716446;82;20996;-42
2021/08/17 03:58:23;;;;;;;18.57;8.53;;;;;;;17.76;89.10;100617.83;1728864;82;21027;-42
2021/08/17 04:00:50;;;;;;;17.05;8.88;;;;;;;17.96;88.08;100622.13;1731011;82;21039;-43
2021/08/17 04:03:16;;;;;;;17.67;8.70;;;;;;;18.21;87.01;100617.94;1727092;82;21179;-42
2021/08/17 04:05:43;;;;;;;11.43;8.40;;;;;;;18.51;85.50;100617.81;1705940;82;22281;-43
2021/08/17 04:08:09;;;;;;;18.12;8.83;;;;;;;18.84;84.05;100617.52;1735199;82;20985;-41
2021/08/17 04:10:35;;;;;;;17.40;9.40;;;;;;;19.17;83.16;100610.17;1729467;82;20933;-43
2021/08/17 04:13:04;;;;;;;14.40;8.75;;;;;;;19.50;82.42;100608.03;1727239;82;20980;-41
2021/08/17 04:15:31;;;;;;;16.10;8.65;;;;;;;19.85;81.84;100610.99;1720620;82;21259;-40
2021/08/17 04:17:58;;;;;;;20.82;8.55;;;;;;;20.20;80.59;100608.20;1707643;82;20948;-40
2021/08/17 04:20:25;;;;;;;21.55;8.68;;;;;;;20.51;79.44;100611.69;1740383;82;21006;-40
2021/08/17 04:22:52;;;;;;;14.25;7.83;;;;;;;20.81;78.77;100602.97;1697148;82;21003;-41
2021/08/17 04:25:18;;;;;;;16.05;8.58;;;;;;;21.11;77.94;100606.03;1729092;82;20984;-40
2021/08/17 04:27:45;;;;;;;13.80;7.90;;;;;;;21.37;76.22;100603.59;1718663;82;21126;-40
2021/08/17 04:30:13;;;;;;;19.23;8.18;;;;;;;21.58;75.23;100607.98;1723097;82;20987;-41
2021/08/17 04:32:39;;;;;;;13.95;8.65;;;;;;;21.77;74.50;100605.06;1717180;82;21516;-42
2021/08/17 04:35:08;;;;;;;18.82;8.73;;;;;;;21.98;73.67;100609.91;1725118;81;20964;-41
2021/08/17 04:37:34;;;;;;;13.13;8.68;;;;;;;22.24;72.28;100615.28;1727015;82;20986;-42
2021/08/17 04:40:01;;;;;;;20.35;9.33;;;;;;;22.47;70.08;100615.11;1722096;82;22270;-40
2021/08/17 04:42:28;;;;;;;24.98;9.43;;;;;;;22.69;69.32;100617.64;1713840;82;21489;-41
2021/08/17 04:44:56;;;;;;;24.15;9.63;;;;;;;22.96;67.34;100608.34;1735110;82;21497;-39
2021/08/17 04:47:23;;;;;;;23.18;9.90;;;;;;;23.18;66.10;100609.96;1729725;82;21477;-41
2021/08/17 04:49:50;;;;;;;22.77;9.30;;;;;;;23.40;64.65;100613.31;1732107;82;21548;-41
2021/08/17 04:52:17;;;;;;;21.05;9.43;;;;;;;23.55;64.05;100617.99;1735564;82;21280;-42
2021/08/17 04:54:44;;;;;;;15.60;8.95;;;;;;;23.72;63.43;100611.50;1722446;82;21011;-42
2021/08/17 04:57:10;;;;;;;19.40;9.35;;;;;;;23.93;62.69;100614.88;1693752;82;21348;-43
2021/08/17 04:59:37;;;;;;;16.90;9.35;;;;;;;23.99;62.50;100617.06;1724082;82;20940;-42
2021/08/17 05:02:03;;;;;;;16.45;8.75;;;;;;;24.16;63.13;100625.60;1722308;81;20988;-42
2021/08/17 05:04:30;;;;;;;18.17;9.13;;;;;;;24.34;62.86;100625.55;1729976;82;21891;-41
2021/08/17 05:06:58;;;;;;;15.40;8.48;;;;;;;24.53;62.94;100626.83;1728875;82;21007;-41
2021/08/17 05:09:25;;;;;;;13.98;9.18;;;;;;;24.76;62.09;100624.28;1738394;81;21051;-42
2021/08/17 05:11:52;;;;;;;20.80;8.30;;;;;;;24.95;62.11;100625.89;1726094;82;21023;-41
2021/08/17 05:14:19;;;;;;;15.32;8.00;;;;;;;25.16;62.02;100621.22;1726599;82;20983;-43
2021/08/17 05:16:46;;;;;;;18.23;8.53;;;;;;;25.34;61.81;100624.70;1726642;82;22782;-41
2021/08/17 05:19:12;;;;;;;17.70;8.53;;;;;;;25.51;60.64;100623.39;1733830;82;21517;-40
2021/08/17 05:21:39;;;;;;;13.38;8.38;;;;;;;25.61;60.15;100620.39;1730067;82;21507;-40
2021/08/17 05:24:07;;;;;;;18.10;8.90;;;;;;;25.67;60.13;100621.72;1720709;82;21512;-42
2021/08/17 05:26:35;;;;;;;18.40;8.70;;;;;;;25.73;60.06;100618.56;1721460;82;21091;-41
2021/08/17 05:29:03;;;;;;;17.30;8.45;;;;;;;25.81;59.92;100624.58;1730529;82;21465;-42
2021/08/17 05:31:31;;;;;;;15.83;8.93;;;;;;;25.77;59.81;100618.67;1717068;82;20963;-41
2021/08/17 05:33:59;;;;;;;19.73;8.78;;;;;;;25.66;60.59;100627.48;1724682;81;21070;-41
2021/08/17 05:36:25;;;;;;;18.37;8.78;;;;;;;25.54;61.03;100617.38;1709413;82;20976;-42
2021/08/17 05:38:52;;;;;;;18.48;8.43;;;;;;;25.48;61.63;100623.17;1718989;82;20967;-41
2021/08/17 05:41:19;;;;;;;18.60;8.58;;;;;;;25.43;60.78;100622.67;1718325;82;21865;-40
2021/08/17 05:43:47;;;;;;;13.30;8.35;;;;;;;25.38;60.86;100623.48;1736499;82;21004;-42
2021/08/17 05:46:14;;;;;;;12.88;8.70;;;;;;;25.28;59.96;100622.08;1735324;82;21035;-41
2021/08/17 05:48:40;;;;;;;14.87;9.40;;;;;;;25.15;59.32;100631.45;1719386;82;21747;-41
2021/08/17 05:51:07;;;;;;;15.40;8.73;;;;;;;25.04;59.28;100628.31;1720793;82;21529;-42
2021/08/17 05:53:34;;;;;;;14.30;9.03;;;;;;;24.91;58.04;100631.06;1730046;82;21777;-42
2021/08/17 05:56:00;;;;;;;18.15;9.13;;;;;;;24.78;59.94;100632.48;1722219;82;21027;-41
2021/08/17 05:58:27;;;;;;;20.52;9.83;;;;;;;24.64;59.72;100632.17;1711677;82;21003;-42
2021/08/17 06:00:54;;;;;;;19.32;9.10;;;;;;;24.54;59.18;100633.34;1723423;82;20996;-41
2021/08/17 06:03:21;;;;;;;19.67;9.70;;;;;;;24.54;59.64;100627.19;1703610;82;20968;-41
2021/08/17 06:05:47;;;;;;;25.57;11.33;;;;;;;24.52;59.83;100629.97;1724501;82;21169;-40
2021/08/17 06:08:14;;;;;;;18.67;9.43;;;;;;;24.55;59.66;100630.20;1706064;82;20968;-42
2021/08/17 06:10:41;;;;;;;18.67;10.58;;;;;;;24.64;60.55;100636.14;1718652;82;21514;-42
2021/08/17 06:13:08;;;;;;;20.75;10.03;;;;;;;24.79;60.99;100631.52;1676814;84;21011;-41
2021/08/17 06:15:35;;;;;;;16.12;9.55;;;;;;;24.94;61.28;100629.50;1679433;84;20991;-42
2021/08/17 06:18:05;;;;;;;18.40;9.40;;;;;;;25.09;60.35;100633.23;1645959;84;21219;-42
2021/08/17 06:20:33;;;;;;;20.35;9.48;;;;;;;25.19;60.17;100633.36;1673152;84;21560;-40
2021/08/17 06:23:01;;;;;;;14.55;9.93;;;;;;;25.21;59.99;100632.30;1681881;84;21477;-42
2021/08/17 06:25:29;;;;;;;16.02;9.80;;;;;;;25.33;60.13;100630.50;1674973;84;20985;-42
2021/08/17 06:27:57;;;;;;;18.85;9.68;;;;;;;25.48;60.46;100634.23;1682637;84;21004;-40
2021/08/17 06:30:24;;;;;;;18.27;9.03;;;;;;;25.63;60.56;100632.17;1674715;84;21232;-40
2021/08/17 06:32:50;;;;;;;17.45;9.68;;;;;;;25.74;58.92;100632.17;1673428;84;21004;-40
2021/08/17 06:35:17;;;;;;;21.05;9.68;;;;;;;25.85;58.18;100635.30;1685347;84;20988;-41
2021/08/17 06:37:43;;;;;;;22.42;9.95;;;;;;;25.98;57.56;100635.14;1675080;84;20988;-40
2021/08/17 06:40:12;;;;;;;20.95;10.10;;;;;;;26.09;57.86;100632.95;1679576;84;20992;-41
2021/08/17 06:42:38;;;;;;;17.17;9.75;;;;;;;26.24;58.22;100638.83;1669524;84;21125;-41
2021/08/17 06:45:07;;;;;;;22.55;9.58;;;;;;;26.39;56.77;100640.20;1670963;84;20992;-40
2021/08/17 06:47:35;;;;;;;16.95;9.68;;;;;;;26.50;57.11;100645.94;1688650;84;21031;-42
2021/08/17 06:50:04;;;;;;;15.10;9.18;;;;;;;26.64;57.17;100647.44;1690364;84;21018;-41
2021/08/17 06:52:30;;;;;;;25.52;9.73;;;;;;;26.78;57.31;100648.11;1680421;83;20991;-41
2021/08/17 06:54:57;;;;;;;20.05;9.80;;;;;;;26.88;56.30;100648.20;1677996;83;21060;-41
2021/08/17 06:57:23;;;;;;;16.90;9.45;;;;;;;26.90;55.17;100646.26;1653680;84;20980;-42
2021/08/17 06:59:50;;;;;;;21.70;9.28;;;;;;;26.91;54.95;100653.25;1671867;84;21019;-42
2021/08/17 07:02:17;;;;;;;20.20;9.65;;;;;;;26.98;55.63;100654.41;1670384;84;21059;-41
2021/08/17 07:04:43;;;;;;;15.03;9.53;;;;;;;27.08;55.83;100654.46;1678420;84;21015;-41
2021/08/17 07:07:10;;;;;;;17.90;9.58;;;;;;;27.23;55.80;100653.16;1670143;84;21265;-40
2021/08/17 07:09:36;;;;;;;16.48;9.73;;;;;;;27.37;55.81;100647.11;1691160;84;21011;-40
2021/08/17 07:12:04;;;;;;;14.65;9.00;;;;;;;27.48;54.55;100644.37;1681459;84;21099;-42
2021/08/17 07:14:32;;;;;;;19.12;9.23;;;;;;;27.63;53.79;100644.88;1656048;84;21589;-41
2021/08/17 07:16:58;;;;;;;23.77;9.40;;;;;;;27.77;54.44;100647.64;1647515;84;21521;-42
2021/08/17 07:19:25;;;;;;;19.75;9.60;;;;;;;27.90;53.82;100648.72;1683740;84;21115;-42
2021/08/17 07:21:51;;;;;;;15.32;8.70;;;;;;;28.04;53.10;100650.14;1653992;85;21047;-41
2021/08/17 07:24:18;;;;;;;17.07;9.08;;;;;;;28.17;53.46;100647.23;1674732;84;21007;-43
2021/08/17 07:26:45;;;;;;;16.82;9.25;;;;;;;28.23;51.86;100646.67;1643213;84;21064;-42
2021/08/17 07:29:12;;;;;;;16.25;8.53;;;;;;;28.32;52.37;100651.66;1682944;84;21075;-40
2021/08/17 07:31:38;;;;;;;12.35;8.20;;;;;;;28.49;51.81;100658.59;1674802;84;21135;-43
2021/08/17 07:34:05;;;;;;;14.35;7.90;;;;;;;28.63;51.66;100656.81;1639899;84;21023;-40
2021/08/17 07:36:35;;;;;;;16.23;8.30;;;;;;;28.79;50.64;100658.92;1683712;84;21032;-41
2021/08/17 07:39:02;;;;;;;13.38;9.18;;;;;;;28.92;49.27;100657.28;1718355;82;20992;-40
2021/08/17 07:41:28;;;;;;;17.90;8.23;;;;;;;29.01;49.88;100656.92;1704193;82;20945;-42
2021/08/17 07:43:55;;;;;;;11.25;7.85;;;;;;;29.16;49.25;100652.47;1708115;82;21138;-40
2021/08/17 07:46:22;;;;;;;14.83;8.38;;;;;;;29.37;49.30;100646.91;1713501;82;21229;-41
2021/08/17 07:48:48;;;;;;;13.28;8.10;;;;;;;29.61;49.14;100645.09;1724512;82;21624;-42
2021/08/17 07:51:15;;;;;;;16.73;8.53;;;;;;;29.77;49.10;100648.43;1726963;81;20972;-41
2021/08/17 07:53:42;;;;;;;17.32;8.58;;;;;;;29.90;48.79;100652.55;1688454;83;20960;-42
2021/08/17 07:56:08;;;;;;;15.23;8.73;;;;;;;30.09;47.72;100647.63;1722142;82;21172;-42
2021/08/17 07:58:37;;;;;;;14.65;8.00;;;;;;;30.25;45.31;100642.94;1720145;82;20929;-42
2021/08/17 08:01:03;;;;;;;18.32;8.68;;;;;;;30.46;45.65;100651.13;1733289;82;20975;-42
2021/08/17 08:03:30;;;;;;;13.70;7.58;;;;;;;30.60;45.98;100654.55;1713599;82;21007;-43
2021/08/17 08:05:56;;;;;;;11.93;7.40;;;;;;;30.85;46.10;100648.59;1700765;83;21273;-42
2021/08/17 08:08:23;;;;;;;22.05;7.47;;;;;;;31.11;45.17;100649.91;1713028;83;21926;-42
2021/08/17 08:10:49;;;;;;;13.15;8.15;;;;;;;31.42;43.96;100650.75;1712949;83;21544;-42
2021/08/17 08:13:16;;;;;;;12.25;8.05;;;;;;;31.63;42.48;100649.48;1712948;83;21608;-42
2021/08/17 08:15:42;;;;;;;13.70;7.62;;;;;;;31.81;42.95;100645.38;1712846;83;21039;-43
2021/08/17 08:18:08;;;;;;;16.12;7.37;;;;;;;31.91;42.23;100642.08;1713282;83;21092;-43
2021/08/17 08:20:37;;;;;;;11.03;7.00;;;;;;;31.99;42.73;100643.94;1652052;84;20974;-42
2021/08/17 08:23:05;;;;;;;14.07;7.85;;;;;;;32.25;42.41;100637.61;1678706;85;21616;-42
2021/08/17 08:25:32;;;;;;;11.85;7.85;;;;;;;32.36;41.14;100630.59;1666672;86;20976;-43
2021/08/17 08:27:59;;;;;;;14.03;7.78;;;;;;;32.26;40.56;100635.27;1637514;86;21028;-42
2021/08/17 08:30:26;;;;;;;12.78;7.72;;;;;;;32.20;40.65;100638.58;1666661;84;21325;-42
2021/08/17 08:32:52;;;;;;;11.45;7.92;;;;;;;32.38;39.80;100632.60;1666595;86;21904;-42
2021/08/17 08:35:19;;;;;;;11.15;7.42;;;;;;;32.53;40.66;100633.28;1666423;86;21282;-42
2021/08/17 08:37:45;;;;;;;14.60;8.80;;;;;;;32.81;39.04;100630.22;1666708;86;21060;-43
2021/08/17 08:40:13;;;;;;;13.72;8.08;;;;;;;32.95;39.53;100632.20;1637531;86;21067;-44
2021/08/17 08:42:40;;;;;;;14.15;8.93;;;;;;;32.94;35.31;100619.81;1685682;84;21114;-40
2021/08/17 08:45:07;;;;;;;15.68;8.55;;;;;;;32.80;38.49;100629.89;1694756;84;21851;-43
2021/08/17 08:47:36;;;;;;;17.67;8.10;;;;;;;32.76;37.85;100633.40;1692900;84;20967;-43
2021/08/17 08:50:04;;;;;;;18.60;8.48;;;;;;;32.90;38.31;100627.05;1643077;84;20980;-43
2021/08/17 08:52:31;;;;;;;15.60;7.95;;;;;;;33.01;37.26;100620.48;1688200;83;21053;-42
2021/08/17 08:54:57;;;;;;;19.48;8.75;;;;;;;33.07;36.86;100620.61;1687167;84;21003;-42
2021/08/17 08:57:24;;;;;;;17.77;8.15;;;;;;;33.16;37.21;100609.87;1696164;83;21278;-42
2021/08/17 08:59:51;;;;;;;14.18;7.90;;;;;;;33.28;37.11;100609.00;1663109;84;21031;-43
2021/08/17 09:02:18;;;;;;;11.70;8.08;;;;;;;33.43;36.70;100605.91;1678488;84;20971;-41
2021/08/17 09:04:52;;;;;;;17.37;8.40;;;;;;;33.61;34.82;100606.16;1669015;84;21035;-43
2021/08/17 09:07:43;;;;;;;21.30;7.80;;;;;;;33.45;36.78;100610.59;1696720;84;20995;-42
2021/08/17 09:10:18;;;;;;;11.53;8.75;;;;;;;33.49;37.25;100609.26;1697292;84;21054;-43
2021/08/17 09:12:50;;;;;;;13.22;8.45;;;;;;;33.67;35.63;100603.61;1697313;84;23043;-42
2021/08/17 09:15:30;;;;;;;17.42;9.98;;;;;;;33.80;36.84;100601.69;1695374;84;20979;-41
2021/08/17 09:18:06;;;;;;;16.05;8.65;;;;;;;33.94;36.21;100600.57;1686123;84;21047;-43
2021/08/17 09:20:43;;;;;;;19.42;9.23;;;;;;;34.09;35.38;100597.97;1697535;84;20924;-42
2021/08/17 09:23:30;;;;;;;14.50;8.78;;;;;;;34.21;35.52;100592.51;1697130;84;20983;-43
2021/08/17 09:26:02;;;;;;;14.87;9.55;;;;;;;34.21;34.80;100593.00;1697422;84;21048;-41
2021/08/17 09:28:36;;;;;;;19.17;9.50;;;;;;;34.29;35.73;100590.76;1697003;84;21012;-42
2021/08/17 09:31:24;;;;;;;17.07;9.90;;;;;;;34.51;33.70;100593.12;1697364;84;21054;-42
2021/08/17 09:33:50;;;;;;;14.00;10.32;;;;;;;34.65;35.26;100590.94;1697185;84;20979;-40
2021/08/17 09:36:18;;;;;;;12.73;10.08;;;;;;;34.73;34.52;100583.30;1669087;84;21157;-41
2021/08/17 09:38:44;;;;;;;16.42;9.85;;;;;;;34.89;35.29;100589.52;1625147;84;20991;-42
2021/08/17 09:41:21;;;;;;;15.05;9.65;;;;;;;35.00;33.89;100592.25;1674536;84;21022;-41
2021/08/17 09:44:01;;;;;;;16.23;9.53;;;;;;;34.87;35.10;100592.38;1670812;84;20983;-42
2021/08/17 09:46:31;;;;;;;23.57;9.70;;;;;;;34.85;34.81;100588.20;1694491;84;21050;-40
2021/08/17 09:49:20;;;;;;;14.33;9.93;;;;;;;34.91;34.79;100584.79;1697162;84;21161;-43
2021/08/17 09:51:47;;;;;;;16.60;9.65;;;;;;;34.89;33.56;100580.93;1682523;84;21219;-42
2021/08/17 09:54:16;;;;;;;17.37;9.45;;;;;;;34.98;33.35;100579.48;1688422;84;21225;-41
2021/08/17 09:56:43;;;;;;;15.05;9.68;;;;;;;34.84;31.95;100573.94;1664667;84;21072;-40
2021/08/17 09:59:19;;;;;;;14.58;9.38;;;;;;;34.61;33.67;100574.86;1659024;85;21735;-40
2021/08/17 10:01:47;;;;;;;14.53;9.15;;;;;;;34.45;33.51;100575.84;1659025;86;21140;-41
2021/08/17 10:04:14;;;;;;;13.93;9.38;;;;;;;34.41;34.02;100573.20;1678379;85;20988;-42
2021/08/17 10:06:43;;;;;;;17.23;9.48;;;;;;;34.54;33.46;100579.31;1721998;82;21468;-42
2021/08/17 10:09:12;;;;;;;17.55;9.43;;;;;;;34.67;33.11;100577.33;1722430;82;20945;-41
2021/08/17 10:11:41;;;;;;;16.97;9.30;;;;;;;34.77;32.82;100574.37;1732868;82;21501;-42
2021/08/17 10:14:12;;;;;;;14.10;9.20;;;;;;;34.77;32.13;100573.03;1732779;82;20988;-42
2021/08/17 10:16:39;;;;;;;12.25;9.68;;;;;;;34.50;34.00;100582.05;1732459;82;21542;-42
2021/08/17 10:19:09;;;;;;;15.90;9.05;;;;;;;34.12;35.18;100582.02;1712555;82;21542;-40
2021/08/17 10:21:39;;;;;;;12.68;9.05;;;;;;;34.01;36.27;100568.02;1732907;82;21076;-42
2021/08/17 10:24:40;;;;;;;20.45;10.30;;;;;;;34.14;35.70;100572.78;1733321;82;20980;-42
2021/08/17 10:27:33;;;;;;;13.58;8.68;;;;;;;34.27;33.86;100568.13;1669758;86;21005;-43
2021/08/17 10:30:06;;;;;;;11.90;8.83;;;;;;;34.35;35.49;100562.67;1733031;82;21525;-42
2021/08/17 10:32:54;;;;;;;17.55;8.78;;;;;;;34.58;36.52;100563.64;1732897;82;21522;-41
2021/08/17 10:35:35;;;;;;;15.93;9.93;;;;;;;34.67;33.65;100562.55;1733308;82;21049;-41
2021/08/17 10:38:14;;;;;;;13.25;8.30;;;;;;;34.61;33.82;100569.98;1732652;82;21023;-43
2021/08/17 10:40:55;;;;;;;13.28;7.85;;;;;;;34.56;34.05;100563.84;1696082;83;21052;-41
2021/08/17 10:43:32;;;;;;;16.25;9.23;;;;;;;34.66;33.98;100563.58;1705214;83;20953;-42
2021/08/17 10:46:09;;;;;;;16.27;8.30;;;;;;;34.68;34.72;100560.19;1683412;83;20983;-41
2021/08/17 10:48:51;;;;;;;13.35;8.60;;;;;;;34.80;33.09;100557.87;1716682;82;21048;-42
2021/08/17 10:51:23;;;;;;;12.47;8.33;;;;;;;34.88;34.65;100556.95;1734648;81;21016;-42
2021/08/17 10:53:52;;;;;;;16.90;8.30;;;;;;;35.01;34.23;100550.41;1728874;82;21160;-42
2021/08/17 10:56:31;;;;;;;11.90;8.45;;;;;;;35.03;33.23;100550.23;1734533;81;21035;-43
2021/08/17 10:58:59;;;;;;;9.50;7.80;;;;;;;35.00;32.25;100545.20;1729746;82;20960;-41
2021/08/17 11:01:47;;;;;;;16.95;8.95;;;;;;;34.93;32.18;100544.59;1728725;82;20961;-44
2021/08/17 11:04:18;;;;;;;13.85;8.05;;;;;;;34.83;34.34;100550.77;1705323;83;21536;-41
2021/08/17 11:06:58;;;;;;;15.32;8.73;;;;;;;34.89;33.13;100549.20;1734490;82;21862;-42
2021/08/17 11:09:31;;;;;;;14.87;8.20;;;;;;;35.02;34.09;100544.53;1734543;82;21011;-42
2021/08/17 11:12:07;;;;;;;9.80;7.87;;;;;;;35.30;32.62;100537.09;1712729;82;21514;-41
2021/08/17 11:14:37;;;;;;;13.15;8.73;;;;;;;35.44;32.32;100542.92;1710875;82;20980;-41
2021/08/17 11:17:08;;;;;;;13.43;7.92;;;;;;;35.52;34.05;100540.66;1709631;82;20968;-42
2021/08/17 11:19:37;;;;;;;11.53;8.23;;;;;;;35.67;31.65;100540.09;1705446;83;21026;-42
2021/08/17 11:22:07;;;;;;;11.97;7.78;;;;;;;35.89;32.56;100541.44;1717031;82;20984;-42
2021/08/17 11:24:38;;;;;;;11.65;7.67;;;;;;;35.71;32.26;100540.52;1717297;82;21015;-39
2021/08/17 11:27:09;;;;;;;13.78;7.92;;;;;;;35.57;33.72;100536.88;1715746;82;21485;-40